createdAt,value
2024-03-26T00:00:14.637Z,9.60
2024-03-26T00:02:42.338Z,7.80
2024-03-26T00:05:10.248Z,6.40
2024-03-26T00:07:37.343Z,13.20
2024-03-26T00:10:05.088Z,6.80
2024-03-26T00:12:34.932Z,5.90
2024-03-26T00:15:01.872Z,7.30
2024-03-26T00:17:29.378Z,7.70
2024-03-26T00:19:57.943Z,6.00
2024-03-26T00:22:27.547Z,9.50
2024-03-26T00:24:54.506Z,8.60
2024-03-26T00:27:21.767Z,8.00
2024-03-26T00:29:49.013Z,7.70
2024-03-26T00:32:16.590Z,7.50
2024-03-26T00:34:43.933Z,8.90
2024-03-26T00:37:11.079Z,9.50
2024-03-26T00:39:37.903Z,6.50
2024-03-26T00:42:04.923Z,5.40
2024-03-26T00:44:32.288Z,7.70
2024-03-26T00:47:00.121Z,6.90
2024-03-26T00:49:27.180Z,7.60
2024-03-26T00:51:54.671Z,7.80
2024-03-26T00:54:23.992Z,7.20
2024-03-26T00:56:52.456Z,6.80
2024-03-26T00:59:19.961Z,5.60
2024-03-26T01:01:47.005Z,7.80
2024-03-26T01:04:14.285Z,8.50
2024-03-26T01:06:42.139Z,7.60
2024-03-26T01:09:09.591Z,7.90
2024-03-26T01:11:37.009Z,7.80
2024-03-26T01:14:04.087Z,7.80
2024-03-26T01:16:31.546Z,5.60
2024-03-26T01:18:58.889Z,8.30
2024-03-26T01:21:26.656Z,9.20
2024-03-26T01:23:53.575Z,6.30
2024-03-26T01:26:20.412Z,8.80
2024-03-26T01:28:48.017Z,9.00
2024-03-26T01:31:15.370Z,5.60
2024-03-26T01:33:42.312Z,7.40
2024-03-26T01:36:09.191Z,6.70
2024-03-26T01:38:36.439Z,5.40
2024-03-26T01:41:04.209Z,7.10
2024-03-26T01:43:31.211Z,7.90
2024-03-26T01:45:58.190Z,5.90
2024-03-26T01:48:25.304Z,6.20
2024-03-26T01:50:53.367Z,6.90
2024-03-26T01:53:21.235Z,7.00
2024-03-26T01:55:50.386Z,7.70
2024-03-26T01:58:22.057Z,5.20
2024-03-26T02:00:52.633Z,8.30
2024-03-26T02:03:19.606Z,5.10
2024-03-26T02:05:47.525Z,5.80
2024-03-26T02:08:16.248Z,8.20
2024-03-26T02:10:44.441Z,6.60
2024-03-26T02:13:11.605Z,6.00
2024-03-26T02:15:39.160Z,6.00
2024-03-26T02:18:06.764Z,6.90
2024-03-26T02:20:33.697Z,6.80
2024-03-26T02:23:00.985Z,6.70
2024-03-26T02:25:28.191Z,8.30
2024-03-26T02:27:55.965Z,6.50
2024-03-26T02:30:22.881Z,6.00
2024-03-26T02:32:50.053Z,5.40
2024-03-26T02:35:18.121Z,5.40
2024-03-26T02:37:45.731Z,5.30
2024-03-26T02:40:13.381Z,6.10
2024-03-26T02:42:40.494Z,4.90
2024-03-26T02:45:08.650Z,7.80
2024-03-26T02:47:35.579Z,7.50
2024-03-26T02:50:02.421Z,6.40
2024-03-26T02:52:32.168Z,5.80
2024-03-26T02:54:59.099Z,5.70
2024-03-26T02:57:25.913Z,7.30
2024-03-26T02:59:52.923Z,6.30
2024-03-26T03:02:20.777Z,6.50
2024-03-26T03:04:47.818Z,5.80
2024-03-26T03:07:14.976Z,5.40
2024-03-26T03:09:42.123Z,7.60
2024-03-26T03:12:09.147Z,5.50
2024-03-26T03:14:36.104Z,6.50
2024-03-26T03:17:06.454Z,8.00
2024-03-26T03:19:33.624Z,6.80
2024-03-26T03:22:00.818Z,7.80
2024-03-26T03:24:28.104Z,7.80
2024-03-26T03:26:55.117Z,5.50
2024-03-26T03:29:23.015Z,5.10
2024-03-26T03:31:49.897Z,6.50
2024-03-26T03:34:17.249Z,5.90
2024-03-26T03:36:44.280Z,7.00
2024-03-26T03:39:11.238Z,6.10
2024-03-26T03:41:38.451Z,7.40
2024-03-26T03:44:06.033Z,5.70
2024-03-26T03:46:33.082Z,7.20
2024-03-26T03:49:00.026Z,6.80
2024-03-26T03:51:30.137Z,7.80
2024-03-26T03:53:57.680Z,7.00
2024-03-26T03:56:24.660Z,5.40
2024-03-26T03:58:51.818Z,5.40
2024-03-26T04:01:22.995Z,6.30
2024-03-26T04:03:49.906Z,5.40
2024-03-26T04:06:17.323Z,5.90
2024-03-26T04:08:44.738Z,6.70
2024-03-26T04:11:15.445Z,7.50
2024-03-26T04:13:42.547Z,6.10
2024-03-26T04:16:09.697Z,6.50
2024-03-26T04:18:36.631Z,6.30
2024-03-26T04:21:03.751Z,7.40
2024-03-26T04:23:30.793Z,7.10
2024-03-26T04:26:01.492Z,6.80
2024-03-26T04:28:29.288Z,5.40
2024-03-26T04:30:56.451Z,6.40
2024-03-26T04:33:23.542Z,6.20
2024-03-26T04:35:51.203Z,5.40
2024-03-26T04:38:18.314Z,6.10
2024-03-26T04:40:48.959Z,6.30
2024-03-26T04:43:16.551Z,5.60
2024-03-26T04:45:43.870Z,6.70
2024-03-26T04:48:11.270Z,6.50
2024-03-26T04:50:39.037Z,5.90
2024-03-26T04:53:07.082Z,4.90
2024-03-26T04:55:34.341Z,8.80
2024-03-26T04:58:01.770Z,6.80
2024-03-26T05:00:29.238Z,10.60
2024-03-26T05:02:58.030Z,5.60
2024-03-26T05:05:25.689Z,6.50
2024-03-26T05:07:55.654Z,7.70
2024-03-26T05:10:22.760Z,8.00
2024-03-26T05:12:50.385Z,6.00
2024-03-26T05:15:17.385Z,6.90
2024-03-26T05:17:44.295Z,7.50
2024-03-26T05:20:11.966Z,5.40
2024-03-26T05:22:39.519Z,7.10
2024-03-26T05:25:07.245Z,6.90
2024-03-26T05:27:35.080Z,6.80
2024-03-26T05:30:02.437Z,5.20
2024-03-26T05:32:30.401Z,5.80
2024-03-26T05:34:58.694Z,6.70
2024-03-26T05:37:26.345Z,4.90
2024-03-26T05:39:53.797Z,5.70
2024-03-26T05:42:20.842Z,6.30
2024-03-26T05:44:47.931Z,5.10
2024-03-26T05:47:15.648Z,6.70
2024-03-26T05:49:43.089Z,5.00
2024-03-26T05:52:10.567Z,6.50
2024-03-26T05:54:37.421Z,5.70
2024-03-26T05:57:04.364Z,6.00
2024-03-26T05:59:31.682Z,6.00
2024-03-26T06:01:58.880Z,5.60
2024-03-26T06:04:26.616Z,4.80
2024-03-26T06:06:53.745Z,6.40
2024-03-26T06:09:22.072Z,5.60
2024-03-26T06:11:52.658Z,4.90
2024-03-26T06:14:19.861Z,5.20
2024-03-26T06:16:47.432Z,6.50
2024-03-26T06:19:14.801Z,7.20
2024-03-26T06:21:41.975Z,7.90
2024-03-26T06:24:09.594Z,8.40
2024-03-26T06:26:37.155Z,10.10
2024-03-26T06:29:04.935Z,10.20
2024-03-26T06:31:31.930Z,12.90
2024-03-26T06:33:58.993Z,9.80
2024-03-26T06:36:26.013Z,12.50
2024-03-26T06:38:54.679Z,10.20
2024-03-26T06:41:22.616Z,15.20
2024-03-26T06:43:50.179Z,10.30
2024-03-26T06:46:17.990Z,12.20
2024-03-26T06:48:46.242Z,12.00
2024-03-26T06:51:13.521Z,10.10
2024-03-26T06:53:40.939Z,8.60
2024-03-26T06:56:08.653Z,14.10
2024-03-26T06:58:40.325Z,11.70
2024-03-26T07:01:07.922Z,10.50
2024-03-26T07:03:35.034Z,9.20
2024-03-26T07:06:02.494Z,8.40
2024-03-26T07:08:30.116Z,9.60
2024-03-26T07:10:57.475Z,10.70
2024-03-26T07:13:28.387Z,8.30
2024-03-26T07:15:55.823Z,10.50
2024-03-26T07:18:22.774Z,7.30
2024-03-26T07:20:53.385Z,9.00
2024-03-26T07:23:20.429Z,12.10
2024-03-26T07:25:50.072Z,10.60
2024-03-26T07:28:17.954Z,8.90
2024-03-26T07:30:45.490Z,10.70
2024-03-26T07:33:12.829Z,7.60
2024-03-26T07:35:41.619Z,7.50
2024-03-26T07:38:09.700Z,12.00
2024-03-26T07:40:37.186Z,7.60
2024-03-26T07:43:13.428Z,10.20
2024-03-26T07:45:44.757Z,9.70
2024-03-26T07:48:12.010Z,8.30
2024-03-26T07:50:40.792Z,8.40
2024-03-26T07:53:08.464Z,8.00
2024-03-26T07:55:39.957Z,8.20
2024-03-26T07:58:07.704Z,8.30
2024-03-26T08:00:35.237Z,8.90
2024-03-26T08:03:03.182Z,11.60
2024-03-26T08:05:30.198Z,6.10
2024-03-26T08:08:00.135Z,8.70
2024-03-26T08:10:27.129Z,8.80
2024-03-26T08:12:56.088Z,7.20
2024-03-26T08:15:23.231Z,7.70
2024-03-26T08:17:50.730Z,10.70
2024-03-26T08:20:19.096Z,7.50
2024-03-26T08:22:46.968Z,9.10
2024-03-26T08:25:15.511Z,9.00
2024-03-26T08:27:42.984Z,7.90
2024-03-26T08:30:11.844Z,7.80
2024-03-26T08:32:39.319Z,10.70
2024-03-26T08:35:09.371Z,13.60
2024-03-26T08:37:39.177Z,11.60
2024-03-26T08:40:10.478Z,10.90
2024-03-26T08:42:37.967Z,12.10
2024-03-26T08:45:09.751Z,14.20
2024-03-26T08:47:38.866Z,11.90
2024-03-26T08:50:10.031Z,9.70
2024-03-26T08:52:37.764Z,14.60
2024-03-26T08:55:05.626Z,10.50
2024-03-26T08:57:32.954Z,12.70
2024-03-26T08:59:59.876Z,13.10
2024-03-26T09:02:27.765Z,12.00
2024-03-26T09:04:54.829Z,10.20
2024-03-26T09:07:22.892Z,13.40
2024-03-26T09:09:50.079Z,13.30
2024-03-26T09:12:17.383Z,10.70
2024-03-26T09:14:45.084Z,13.50
2024-03-26T09:17:13.096Z,12.40
2024-03-26T09:19:40.006Z,11.20
2024-03-26T09:22:07.862Z,14.00
2024-03-26T09:24:43.180Z,16.90
2024-03-26T09:27:17.446Z,10.80
2024-03-26T09:29:44.474Z,13.20
2024-03-26T09:32:12.171Z,13.90
2024-03-26T09:34:39.408Z,19.10
2024-03-26T09:37:07.277Z,17.40
2024-03-26T09:39:35.071Z,16.90
2024-03-26T09:42:04.341Z,14.20
2024-03-26T09:44:32.449Z,16.60
2024-03-26T09:47:01.963Z,17.30
2024-03-26T09:49:32.589Z,18.50
2024-03-26T09:52:02.086Z,11.60
2024-03-26T09:54:30.109Z,19.60
2024-03-26T09:56:57.011Z,16.20
2024-03-26T09:59:24.082Z,19.30
2024-03-26T10:01:55.797Z,20.70
2024-03-26T10:04:23.300Z,22.00
2024-03-26T10:06:51.058Z,20.10
2024-03-26T10:09:18.710Z,26.20
2024-03-26T10:11:47.224Z,18.60
2024-03-26T10:14:14.536Z,22.30
2024-03-26T10:16:43.082Z,21.60
2024-03-26T10:19:11.153Z,27.30
2024-03-26T10:21:46.396Z,25.30
2024-03-26T10:24:13.809Z,25.50
2024-03-26T10:26:41.201Z,29.40
2024-03-26T10:29:10.299Z,34.30
2024-03-26T10:31:40.252Z,31.50
2024-03-26T10:34:11.147Z,35.20
2024-03-26T10:36:39.092Z,38.70
2024-03-26T10:39:07.482Z,33.50
2024-03-26T10:41:36.243Z,38.80
2024-03-26T10:44:03.477Z,40.40
2024-03-26T10:46:32.484Z,39.90
2024-03-26T10:51:28.097Z,37.70
2024-03-26T10:54:00.813Z,37.40
2024-03-26T10:56:28.114Z,47.10
2024-03-26T10:59:01.706Z,43.80
2024-03-26T11:01:31.527Z,37.70
2024-03-26T11:03:59.777Z,48.20
2024-03-26T11:06:30.022Z,36.90
2024-03-26T11:09:03.953Z,33.60
2024-03-26T11:11:37.684Z,40.00
2024-03-26T11:14:05.385Z,39.60
2024-03-26T11:16:37.898Z,32.60
2024-03-26T11:19:26.272Z,36.70
2024-03-26T11:21:55.256Z,36.70
2024-03-26T11:24:31.795Z,38.80
2024-03-26T11:27:00.620Z,42.00
2024-03-26T11:29:29.147Z,42.90
2024-03-26T11:32:00.071Z,44.90
2024-03-26T11:34:28.408Z,44.80
2024-03-26T11:36:58.517Z,39.80
2024-03-26T11:39:27.287Z,47.60
2024-03-26T11:41:56.269Z,35.60
2024-03-26T11:44:24.459Z,32.70
2024-03-26T11:46:51.981Z,39.20
2024-03-26T11:49:19.564Z,37.00
2024-03-26T11:51:46.915Z,47.40
2024-03-26T11:54:14.812Z,39.10
2024-03-26T11:56:42.313Z,40.20
2024-03-26T11:59:10.068Z,41.90
2024-03-26T12:01:37.298Z,33.20
2024-03-26T12:04:04.582Z,33.30
2024-03-26T12:06:34.169Z,38.20
2024-03-26T12:09:02.334Z,40.70
2024-03-26T12:11:30.454Z,43.20
2024-03-26T12:13:57.859Z,47.80
2024-03-26T12:16:27.143Z,38.80
2024-03-26T12:18:55.474Z,42.80
2024-03-26T12:21:24.276Z,44.50
2024-03-26T12:23:56.131Z,45.20
2024-03-26T12:26:24.125Z,41.20
2024-03-26T12:28:52.076Z,44.60
2024-03-26T12:31:19.628Z,36.10
2024-03-26T12:33:50.109Z,39.50
2024-03-26T12:36:19.426Z,35.70
2024-03-26T12:38:46.911Z,35.70
2024-03-26T12:41:13.961Z,28.30
2024-03-26T12:43:42.461Z,34.40
2024-03-26T12:46:09.595Z,35.70
2024-03-26T12:48:36.949Z,33.90
2024-03-26T12:51:04.361Z,32.80
2024-03-26T12:53:31.359Z,45.20
2024-03-26T12:56:01.595Z,36.30
2024-03-26T12:58:28.805Z,36.50
2024-03-26T13:00:56.592Z,38.80
2024-03-26T13:03:24.524Z,37.00
2024-03-26T13:05:52.282Z,30.30
2024-03-26T13:08:19.624Z,34.30
2024-03-26T13:10:49.718Z,37.60
2024-03-26T13:13:18.016Z,40.10
2024-03-26T13:15:47.498Z,45.50
2024-03-26T13:18:15.061Z,42.10
2024-03-26T13:20:42.308Z,43.80
2024-03-26T13:23:09.332Z,51.80
2024-03-26T13:25:37.853Z,43.00
2024-03-26T13:28:06.143Z,55.90
2024-03-26T13:30:40.800Z,38.50
2024-03-26T13:33:11.832Z,47.80
2024-03-26T13:35:39.363Z,51.30
2024-03-26T13:38:07.698Z,53.50
2024-03-26T13:43:07.669Z,53.40
2024-03-26T13:45:48.959Z,55.70
2024-03-26T13:48:23.752Z,41.70
2024-03-26T13:50:51.401Z,49.10
2024-03-26T13:53:19.359Z,51.20
2024-03-26T13:55:46.747Z,48.60
2024-03-26T13:58:13.723Z,45.00
2024-03-26T14:00:41.258Z,43.20
2024-03-26T14:03:12.457Z,40.00
2024-03-26T14:05:39.941Z,45.00
2024-03-26T14:08:07.465Z,43.20
2024-03-26T14:10:34.488Z,47.20
2024-03-26T14:13:01.549Z,47.80
2024-03-26T14:15:29.412Z,38.10
2024-03-26T14:17:57.279Z,40.80
2024-03-26T14:20:25.567Z,42.40
2024-03-26T14:22:52.815Z,42.50
2024-03-26T14:25:20.376Z,36.90
2024-03-26T14:27:47.835Z,50.20
2024-03-26T14:30:16.023Z,37.40
2024-03-26T14:32:43.846Z,43.30
2024-03-26T14:35:13.251Z,34.40
2024-03-26T14:37:41.287Z,38.00
2024-03-26T14:40:11.704Z,39.70
2024-03-26T14:42:38.899Z,34.10
2024-03-26T14:45:07.428Z,31.00
2024-03-26T14:47:36.901Z,33.60
2024-03-26T14:50:04.724Z,33.00
2024-03-26T14:52:32.699Z,38.00
2024-03-26T14:55:00.204Z,32.80
2024-03-26T14:57:27.902Z,35.10
2024-03-26T14:59:55.419Z,30.90
2024-03-26T15:02:22.375Z,36.50
2024-03-26T15:04:49.619Z,44.90
2024-03-26T15:07:16.908Z,34.00
2024-03-26T15:09:44.474Z,28.90
2024-03-26T15:12:12.232Z,40.00
2024-03-26T15:14:41.019Z,40.50
2024-03-26T15:17:08.435Z,30.50
2024-03-26T15:19:36.056Z,36.30
2024-03-26T15:22:04.839Z,40.50
2024-03-26T15:24:33.907Z,33.10
2024-03-26T15:27:10.349Z,33.40
2024-03-26T15:30:06.855Z,29.00
2024-03-26T15:32:34.929Z,34.50
2024-03-26T15:35:02.838Z,30.30
2024-03-26T15:37:29.821Z,34.20
2024-03-26T15:39:57.150Z,29.90
2024-03-26T15:42:24.134Z,32.20
2024-03-26T15:44:53.427Z,24.00
2024-03-26T15:47:20.803Z,30.10
2024-03-26T15:49:47.957Z,26.10
2024-03-26T15:52:15.493Z,35.50
2024-03-26T15:54:42.423Z,25.90
2024-03-26T15:57:09.616Z,28.50
2024-03-26T15:59:36.930Z,25.80
2024-03-26T16:02:04.356Z,29.30
2024-03-26T16:04:33.271Z,28.40
2024-03-26T16:07:00.476Z,28.90
2024-03-26T16:09:27.415Z,31.20
2024-03-26T16:11:54.590Z,29.50
2024-03-26T16:14:21.565Z,28.90
2024-03-26T16:16:48.556Z,27.30
2024-03-26T16:19:16.566Z,24.30
2024-03-26T16:21:45.026Z,35.30
2024-03-26T16:24:12.193Z,29.30
2024-03-26T16:26:39.424Z,25.70
2024-03-26T16:29:07.032Z,27.30
2024-03-26T16:31:34.093Z,24.20
2024-03-26T16:34:01.968Z,29.30
2024-03-26T16:36:29.452Z,24.30
2024-03-26T16:38:56.908Z,27.90
2024-03-26T16:41:45.370Z,20.90
2024-03-26T16:44:13.183Z,24.80
2024-03-26T16:46:42.740Z,28.40
2024-03-26T16:49:11.778Z,25.80
2024-03-26T16:51:40.428Z,29.20
2024-03-26T16:54:08.558Z,25.50
2024-03-26T16:56:38.927Z,30.80
2024-03-26T16:59:08.602Z,25.50
2024-03-26T17:01:36.199Z,27.00
2024-03-26T17:04:03.941Z,21.70
2024-03-26T17:06:31.028Z,27.80
2024-03-26T17:08:59.658Z,24.60
2024-03-26T17:11:31.451Z,23.80
2024-03-26T17:14:02.015Z,25.90
2024-03-26T17:16:36.083Z,26.60
2024-03-26T17:19:12.006Z,18.40
2024-03-26T17:21:41.070Z,23.50
2024-03-26T17:24:08.119Z,27.60
2024-03-26T17:26:36.587Z,24.30
2024-03-26T17:29:04.232Z,20.40
2024-03-26T17:31:33.307Z,25.80
2024-03-26T17:34:04.483Z,24.80
2024-03-26T17:36:33.742Z,20.00
2024-03-26T17:39:03.455Z,21.00
2024-03-26T17:41:30.889Z,26.20
2024-03-26T17:43:59.161Z,26.70
2024-03-26T17:46:27.053Z,26.30
2024-03-26T17:48:55.861Z,30.30
2024-03-26T17:51:23.869Z,21.40
2024-03-26T17:53:53.055Z,23.70
2024-03-26T17:56:24.734Z,18.20
2024-03-26T17:58:53.354Z,21.40
2024-03-26T18:01:21.221Z,18.20
2024-03-26T18:03:49.003Z,23.30
2024-03-26T18:06:21.798Z,20.40
2024-03-26T18:08:51.983Z,23.50
2024-03-26T18:11:21.280Z,21.40
2024-03-26T18:13:51.645Z,29.10
2024-03-26T18:16:19.490Z,27.70
2024-03-26T18:18:48.692Z,27.80
2024-03-26T18:21:18.535Z,25.40
2024-03-26T18:23:45.932Z,23.60
2024-03-26T18:26:15.576Z,27.20
2024-03-26T18:28:45.486Z,23.20
2024-03-26T18:31:16.472Z,25.30
2024-03-26T18:33:46.542Z,24.10
2024-03-26T18:36:14.782Z,32.70
2024-03-26T18:38:44.619Z,31.30
2024-03-26T18:41:14.470Z,23.40
2024-03-26T18:43:44.086Z,28.40
2024-03-26T18:46:14.260Z,32.20
2024-03-26T18:48:43.206Z,30.40
2024-03-26T18:51:11.600Z,28.10
2024-03-26T18:53:41.780Z,36.20
2024-03-26T18:56:16.485Z,26.60
2024-03-26T18:58:47.011Z,32.00
2024-03-26T19:01:19.547Z,29.40
2024-03-26T19:03:51.620Z,28.60
2024-03-26T19:06:23.564Z,30.10
2024-03-26T19:08:56.026Z,30.00
2024-03-26T19:11:26.166Z,31.80
2024-03-26T19:13:57.676Z,25.70
2024-03-26T19:16:28.229Z,30.90
2024-03-26T19:19:02.133Z,28.70
2024-03-26T19:21:31.497Z,36.50
2024-03-26T19:23:58.916Z,30.30
2024-03-26T19:26:26.442Z,36.30
2024-03-26T19:28:56.022Z,31.30
2024-03-26T19:31:23.264Z,28.50
2024-03-26T19:33:50.481Z,31.90
2024-03-26T19:36:22.039Z,35.90
2024-03-26T19:38:51.821Z,30.10
2024-03-26T19:41:19.199Z,30.20
2024-03-26T19:43:49.155Z,28.60
2024-03-26T19:46:19.614Z,36.40
2024-03-26T19:48:50.964Z,35.30
2024-03-26T19:51:20.975Z,39.20
2024-03-26T19:53:50.902Z,34.10
2024-03-26T19:56:18.808Z,34.40
2024-03-26T19:58:48.290Z,39.50
2024-03-26T20:01:19.215Z,42.40
2024-03-26T20:03:48.926Z,39.40
2024-03-26T20:06:19.352Z,38.20
2024-03-26T20:08:47.665Z,36.80
2024-03-26T20:11:19.934Z,41.70
2024-03-26T20:13:47.365Z,39.90
2024-03-26T20:16:21.761Z,39.10
2024-03-26T20:18:52.188Z,38.60
2024-03-26T20:21:22.256Z,42.30
2024-03-26T20:23:49.382Z,35.50
2024-03-26T20:26:19.345Z,41.00
2024-03-26T20:28:46.830Z,34.60
2024-03-26T20:31:16.628Z,45.00
2024-03-26T20:33:47.373Z,41.40
2024-03-26T20:36:18.782Z,41.50
2024-03-26T20:38:48.705Z,45.00
2024-03-26T20:41:19.267Z,43.90
2024-03-26T20:43:48.289Z,41.30
2024-03-26T20:46:17.944Z,42.10
2024-03-26T20:48:47.469Z,38.10
2024-03-26T20:51:18.016Z,47.20
2024-03-26T20:53:46.391Z,44.20
2024-03-26T20:56:13.607Z,50.30
2024-03-26T20:58:42.460Z,39.60
2024-03-26T21:01:19.014Z,45.30
2024-03-26T21:03:47.747Z,50.00
2024-03-26T21:06:17.990Z,44.80
2024-03-26T21:08:47.515Z,51.70
2024-03-26T21:11:15.093Z,43.70
2024-03-26T21:13:44.927Z,42.60
2024-03-26T21:16:16.522Z,44.70
2024-03-26T21:18:51.434Z,39.10
2024-03-26T21:21:21.031Z,43.10
2024-03-26T21:23:50.506Z,47.10
2024-03-26T21:26:21.246Z,45.70
2024-03-26T21:28:48.385Z,35.40
2024-03-26T21:31:15.593Z,41.70
2024-03-26T21:33:43.231Z,35.30
2024-03-26T21:36:12.290Z,38.00
2024-03-26T21:38:42.126Z,40.10
2024-03-26T21:41:12.371Z,38.10
2024-03-26T21:43:40.205Z,34.20
2024-03-26T21:46:09.868Z,40.60
2024-03-26T21:48:39.562Z,31.90
2024-03-26T21:51:06.486Z,38.90
2024-03-26T21:53:36.417Z,37.80
2024-03-26T21:56:08.486Z,43.00
2024-03-26T21:58:35.576Z,31.40
2024-03-26T22:01:03.463Z,41.20
2024-03-26T22:03:34.141Z,38.70
2024-03-26T22:06:03.473Z,43.00
2024-03-26T22:08:31.812Z,32.60
2024-03-26T22:11:03.740Z,40.60
2024-03-26T22:13:36.747Z,40.00
2024-03-26T22:16:06.905Z,39.60
2024-03-26T22:18:37.635Z,40.50
2024-03-26T22:21:05.900Z,35.90
2024-03-26T22:23:36.976Z,34.50
2024-03-26T22:26:10.790Z,36.60
2024-03-26T22:28:39.770Z,40.30
2024-03-26T22:31:07.888Z,32.70
2024-03-26T22:33:40.859Z,35.30
2024-03-26T22:36:12.628Z,40.90
2024-03-26T22:38:41.763Z,32.40
2024-03-26T22:41:09.301Z,34.50
2024-03-26T22:43:41.675Z,30.70
2024-03-26T22:46:11.929Z,31.50
2024-03-26T22:48:39.520Z,29.70
2024-03-26T22:51:08.612Z,39.10
2024-03-26T22:53:35.709Z,32.00
2024-03-26T22:56:06.752Z,35.30
2024-03-26T22:58:34.894Z,35.00
2024-03-26T23:01:09.280Z,29.70
2024-03-26T23:03:37.276Z,31.90
2024-03-26T23:06:08.917Z,35.80
2024-03-26T23:08:36.929Z,36.20
2024-03-26T23:11:07.994Z,36.20
2024-03-26T23:13:36.058Z,31.30
2024-03-26T23:16:06.504Z,35.00
2024-03-26T23:18:35.114Z,35.10
2024-03-26T23:21:05.269Z,36.60
2024-03-26T23:23:34.076Z,27.30
2024-03-26T23:26:01.184Z,37.60
2024-03-26T23:28:29.557Z,34.70
2024-03-26T23:30:57.400Z,27.60
2024-03-26T23:33:24.423Z,35.10
2024-03-26T23:35:51.554Z,32.10
2024-03-26T23:38:19.023Z,28.40
2024-03-26T23:40:51.941Z,31.80
2024-03-26T23:43:18.815Z,30.60
2024-03-26T23:45:47.452Z,33.00
2024-03-26T23:48:16.513Z,28.30
2024-03-26T23:50:44.627Z,26.40
2024-03-26T23:53:11.912Z,30.20
2024-03-26T23:55:40.921Z,32.60
2024-03-26T23:58:09.294Z,26.50
